Wetterstation Rottenburg Seebronn / 442m msl / http://mut-lambrecht.de
LETZTE AKTUALISIERUNG UM: 00:20 DATUM: Mai 01 2017, time of next update: 00:25
Aktuelles WetterClear/Night Aktuelle Temperatur 7.1°C (44.8°F), Apparent temp 5.2°C
Höchsttemperatur (seit Mitternacht)7.7°C um: 00:00 Tiefsttemperatur (seit Mitternacht)7.1°C um: 00:19
Windgeschwindigkeit (10 Minuten )2.4 kmh (1.3 kts) Windrichtung (Dir) (10 Minuten )W (272°)
Windchill Temperatur 7.0°C Windspitzen (letzte Std)6.0 kmh (3.2 kts) um: 23:31
Windspitzen (seit Mitternacht)6.0 kmh (3.2 kts) um: 00:17 Höchstes Windmittel / Minute (seit Mitternacht)3.8 kmh (2.0 kts) um: 00:17
Regenmenge (letzte Std)0.0 mm Regenmenge (seit Mitternacht)0.0 mm (0.00 in.)---
Regenmenge diesen Monat 0.0 mm (0.00 in.) Regenmenge seit Jahresbeginn 116.7 mm (4.59 in.)
Höchste Regenmenge pro Minute (letzte Std)0.0 mm/min Höchste Regenmenge pro Stunde (letzte 6 Std)0.0 mm/stunde
Regenmenge Gestern 0.0 mm Taupunkt -0.6°C (Wet Bulb :4.1°C )
Luftfeuchtigkeit 58 %, Humidex 4.8°C Aktueller Luftdruck (auf Meereshöhe bezogen)1007.3 hPa
Luftdrucktendenz 0.0 hPa (letzte Std) Trend (letzte 1 Std)gleichbleibend
Luftdrucktendenz (letzte 12 Std)-4.2 hPa Luftdrucktendenz (letzte 6 Std)+0.2 hPa



Weather report/warning/Metars

Stuttgart-Echterdingen, Germany (EDDS) 48-41N 009-13E 391M
Apr 30, 2017 - 05:50 PM EDT / 2017.04.30 2150 UTC
Wind: from the E (080 degrees) at 3 MPH (3 KT) (direction variable):0
Visibility: greater than 7 mile(s):0
Temperature: 48 F (9 C)
Dew Point: 35 F (2 C)
Relative Humidity: 61%
Pressure (altimeter): 29.71 in. Hg (1006 hPa)
ob: EDDS 302150Z 08003KT 050V110 CAVOK 09/02 Q1006
cycle: 22
Karlsruhe, Baden Wurttemberg, Germany (EDSB) 48-46-43N 008-04-47E
Apr 30, 2017 - 05:20 PM EDT / 2017.04.30 2120 UTC
Wind: from the NE (040 degrees) at 5 MPH (4 KT):0
Visibility: greater than 7 mile(s):0
Temperature: 55 F (13 C)
Dew Point: 37 F (3 C)
Relative Humidity: 50%
Pressure (altimeter): 29.65 in. Hg (1004 hPa)
ob: EDSB 302120Z 04004KT CAVOK 13/03 Q1004
cycle: 21
Lahr, CAN-AFB, Germany (EDTL) 48-22-09N 007-49-40E
Apr 30, 2017 - 11:50 AM EDT / 2017.04.30 1550 UTC
Wind: from the E (100 degrees) at 6 MPH (5 KT) (direction variable):0
Visibility: greater than 7 mile(s):0
Temperature: 69 F (21 C)
Dew Point: 30 F (-1 C)
Relative Humidity: 22%
Pressure (altimeter): 29.68 in. Hg (1005 hPa)
ob: EDTL 301550Z 10005KT 030V140 CAVOK 21/M01 Q1005
cycle: 16
Laupheim, Germany (ETHL) 48-13N 009-55E 550M
Apr 30, 2017 - 05:20 PM EDT / 2017.04.30 2120 UTC
Wind: from the ENE (060 degrees) at 5 MPH (4 KT):0
Visibility: greater than 7 mile(s):0
Sky conditions: mostly clear
Temperature: 46 F (8 C)
Dew Point: 35 F (2 C)
Relative Humidity: 65%
Pressure (altimeter): 29.74 in. Hg (1007 hPa)
ob: ETHL 302120Z 06004KT 9999 FEW280 08/02 Q1007 BLU+
cycle: 21


Klicken Sie hier, um eine Übersicht der Durchschnitts- u. Extremwerte für den Monat zu erhalten


Die Datenübertragung findet alle 5 Minuten statt.

Drücken Sie gegebenenfalls auf "Aktualisieren" in Ihrem Browser, um die aktuellsten Daten zu erhalten.

Created by "Weather Display" software version 10.37S at this start time/date 23:14:12 18.10.2016